Time;durP1;ratioP1;P1;durP2;ratioP2;P2;SDS_P1;SDS_P2;PMS_P1;PMS_P2;Temp;Humidity;BMP_temperature;BMP_pressure;BME280_temperature;BME280_humidity;BME280_pressure;Samples;Min_cycle;Max_cycle;Signal;HPM_P1;HPM_P2
2024/01/01 00:00:44;;;;;;;66.60;45.80;;;;;;;5.27;68.04;97818.06;4989805;28;103024;-76
2024/01/01 00:03:18;;;;;;;45.38;29.80;;;;;;;5.32;67.82;97812.38;4991189;28;102680;-76
2024/01/01 00:05:46;;;;;;;33.47;22.65;;;;;;;5.26;67.71;97808.56;4996744;28;103675;-76
2024/01/01 00:08:14;;;;;;;29.65;19.90;;;;;;;5.36;67.37;97816.34;4974191;28;104356;-76
2024/01/01 00:10:44;;;;;;;25.35;18.13;;;;;;;5.41;67.52;97821.94;4992389;28;103341;-76
2024/01/01 00:13:12;;;;;;;29.60;19.52;;;;;;;5.38;67.34;97819.59;4997349;28;102742;-79
2024/01/01 00:15:40;;;;;;;31.00;18.05;;;;;;;5.40;67.17;97819.47;4980313;28;104211;-77
2024/01/01 00:18:07;;;;;;;27.85;17.02;;;;;;;5.42;67.35;97814.88;4991767;28;103895;-72
2024/01/01 00:20:39;;;;;;;25.40;15.43;;;;;;;5.42;66.84;97809.63;4978731;28;104403;-71
2024/01/01 00:23:07;;;;;;;19.25;13.85;;;;;;;5.41;67.03;97798.31;4990924;28;103872;-80
2024/01/01 00:25:36;;;;;;;19.52;13.65;;;;;;;5.42;66.98;97802.59;4997004;28;103950;-76
2024/01/01 00:28:06;;;;;;;19.00;12.10;;;;;;;5.41;66.73;97808.81;4993546;28;103939;-79
2024/01/01 00:30:34;;;;;;;19.95;11.32;;;;;;;5.40;67.06;97807.16;4993431;28;104395;-79
2024/01/01 00:33:02;;;;;;;14.82;10.73;;;;;;;5.43;67.24;97806.84;4977004;28;102639;-78
2024/01/01 00:35:30;;;;;;;16.60;10.98;;;;;;;5.43;67.15;97795.50;4973616;28;102906;-78
2024/01/01 00:38:00;;;;;;;19.88;11.80;;;;;;;5.42;67.10;97789.44;4996497;28;104775;-77
2024/01/01 00:40:28;;;;;;;16.23;10.68;;;;;;;5.35;66.96;97793.66;4973811;28;103169;-77
2024/01/01 00:42:59;;;;;;;19.15;11.50;;;;;;;5.37;67.08;97796.97;4993939;28;102701;-77
2024/01/01 00:45:27;;;;;;;16.67;9.98;;;;;;;5.39;66.87;97794.19;4993800;28;104213;-78
2024/01/01 00:48:07;;;;;;;14.07;9.40;;;;;;;5.37;67.03;97790.88;4971955;28;103345;-77
2024/01/01 00:50:36;;;;;;;17.73;10.02;;;;;;;5.38;66.70;97801.22;4974391;28;103228;-80
2024/01/01 00:53:05;;;;;;;13.27;8.63;;;;;;;5.41;66.76;97790.44;4998896;28;102674;-78
2024/01/01 00:55:33;;;;;;;18.95;9.77;;;;;;;5.35;66.66;97782.34;4974660;28;102794;-78
2024/01/01 00:58:01;;;;;;;16.08;9.95;;;;;;;5.38;66.64;97792.53;4971998;28;103705;-80
2024/01/01 01:00:30;;;;;;;14.60;8.93;;;;;;;5.35;66.72;97791.03;4972042;28;103380;-78
2024/01/01 01:02:58;;;;;;;19.60;11.93;;;;;;;5.43;66.84;97791.06;4970051;28;102784;-76
2024/01/01 01:05:29;;;;;;;17.08;9.70;;;;;;;5.40;66.57;97799.28;4988564;28;102630;-77
2024/01/01 01:07:58;;;;;;;16.40;8.88;;;;;;;5.39;66.75;97797.63;4976385;28;104073;-78
2024/01/01 01:10:28;;;;;;;17.65;9.00;;;;;;;5.37;66.79;97806.63;4993168;28;104340;-79
2024/01/01 01:12:56;;;;;;;12.05;8.73;;;;;;;5.35;66.87;97808.63;4971252;28;102875;-77
2024/01/01 01:15:28;;;;;;;17.05;8.43;;;;;;;5.39;66.77;97810.75;4973496;28;103783;-78
2024/01/01 01:17:56;;;;;;;14.10;8.07;;;;;;;5.51;66.50;97802.59;4972163;28;104513;-78
2024/01/01 01:20:24;;;;;;;14.52;9.02;;;;;;;5.46;66.81;97801.28;4968149;28;103202;-79
2024/01/01 01:22:52;;;;;;;11.95;8.80;;;;;;;5.46;66.88;97818.81;4969915;28;102677;-78
2024/01/01 01:25:20;;;;;;;15.02;7.90;;;;;;;5.54;66.72;97818.03;4975074;28;104240;-78
2024/01/01 01:27:50;;;;;;;14.95;8.82;;;;;;;5.47;66.68;97820.47;4976524;28;103256;-77
2024/01/01 01:30:18;;;;;;;16.02;8.50;;;;;;;5.46;66.81;97824.91;4975208;28;104865;-78
2024/01/01 01:32:46;;;;;;;13.88;8.48;;;;;;;5.48;67.05;97825.56;4968579;28;103253;-76
2024/01/01 01:35:14;;;;;;;12.35;7.78;;;;;;;5.53;66.88;97826.91;4977575;28;104291;-78
2024/01/01 01:37:45;;;;;;;12.23;8.32;;;;;;;5.55;66.91;97819.69;4979028;28;104805;-77
2024/01/01 01:40:13;;;;;;;12.38;7.72;;;;;;;5.52;67.24;97825.28;4989294;28;103203;-77
2024/01/01 01:42:44;;;;;;;12.23;7.95;;;;;;;5.51;67.05;97819.19;4987754;28;102710;-77
2024/01/01 01:45:14;;;;;;;11.93;8.18;;;;;;;5.57;66.68;97823.00;4975118;28;104058;-78
2024/01/01 01:47:42;;;;;;;12.95;7.75;;;;;;;5.52;66.88;97826.09;4973878;28;103309;-78
2024/01/01 01:50:11;;;;;;;12.40;7.10;;;;;;;5.46;67.49;97824.91;4978380;28;103237;-77
2024/01/01 01:52:40;;;;;;;9.85;5.97;;;;;;;5.44;67.22;97829.50;4987423;28;102669;-80
2024/01/01 01:55:09;;;;;;;12.65;7.43;;;;;;;5.50;66.65;97825.41;4993336;28;104129;-78
2024/01/01 01:57:38;;;;;;;11.30;8.00;;;;;;;5.44;67.14;97828.69;4986402;28;103250;-78
2024/01/01 02:00:08;;;;;;;9.68;6.63;;;;;;;5.46;66.86;97832.81;4976792;28;104096;-79
2024/01/01 02:02:41;;;;;;;9.60;6.47;;;;;;;5.46;67.19;97822.28;4989040;28;102698;-77
2024/01/01 02:05:10;;;;;;;10.25;6.85;;;;;;;5.48;67.23;97822.94;4977956;28;102738;-77
2024/01/01 02:07:39;;;;;;;10.85;7.60;;;;;;;5.45;67.21;97820.63;4980863;28;103204;-77
2024/01/01 02:10:08;;;;;;;14.10;7.65;;;;;;;5.44;67.25;97823.44;4994304;28;103307;-78
2024/01/01 02:12:36;;;;;;;11.43;6.60;;;;;;;5.48;67.65;97830.00;4994566;28;102538;-77
2024/01/01 02:15:05;;;;;;;13.10;6.25;;;;;;;5.53;67.47;97816.38;4977582;28;104635;-80
2024/01/01 02:17:33;;;;;;;9.25;5.95;;;;;;;5.45;67.85;97823.25;4982506;28;104120;-78
2024/01/01 02:20:03;;;;;;;11.50;6.50;;;;;;;5.49;67.83;97810.66;4975674;28;104118;-78
2024/01/01 02:22:44;;;;;;;11.23;7.22;;;;;;;5.51;67.77;97811.28;4995903;28;102733;-78
2024/01/01 02:25:16;;;;;;;9.43;5.63;;;;;;;5.55;68.09;97809.19;4991166;28;102706;-78
2024/01/01 02:27:44;;;;;;;7.53;5.03;;;;;;;5.54;68.24;97812.78;4972933;28;104591;-78
2024/01/01 02:30:12;;;;;;;8.95;5.45;;;;;;;5.56;68.32;97810.84;4988463;28;103262;-78
2024/01/01 02:32:40;;;;;;;12.18;4.90;;;;;;;5.55;68.13;97811.81;4973774;28;103679;-79
2024/01/01 02:35:09;;;;;;;7.03;4.55;;;;;;;5.58;68.10;97822.00;4997436;28;103935;-78
2024/01/01 02:37:37;;;;;;;7.40;4.40;;;;;;;5.62;68.16;97820.69;4971319;28;103376;-78
2024/01/01 02:40:08;;;;;;;7.95;4.68;;;;;;;5.59;68.48;97821.03;4974249;28;104293;-78
2024/01/01 02:42:37;;;;;;;6.60;4.03;;;;;;;5.64;68.54;97821.38;4972840;28;102621;-78
2024/01/01 02:45:07;;;;;;;8.55;5.22;;;;;;;5.63;68.56;97827.59;4977981;28;103069;-78
2024/01/01 02:47:37;;;;;;;8.10;5.05;;;;;;;5.59;68.46;97827.13;4977997;28;103336;-79
2024/01/01 02:50:06;;;;;;;6.93;4.15;;;;;;;5.62;68.66;97825.94;4998539;28;103584;-78
2024/01/01 02:52:35;;;;;;;8.10;5.32;;;;;;;5.57;68.81;97829.06;4978921;28;102625;-78
2024/01/01 02:55:03;;;;;;;7.53;4.18;;;;;;;5.64;68.41;97818.75;4996437;28;102825;-79
2024/01/01 02:57:31;;;;;;;7.05;4.68;;;;;;;5.66;68.60;97819.41;4995907;28;104199;-78
2024/01/01 03:00:00;;;;;;;8.13;4.40;;;;;;;5.61;68.63;97822.50;4994695;28;103309;-78
2024/01/01 03:02:28;;;;;;;6.68;4.32;;;;;;;5.65;68.65;97829.09;4995063;28;103046;-77
2024/01/01 03:04:56;;;;;;;7.72;4.38;;;;;;;5.68;68.62;97825.31;4980686;28;104543;-78
2024/01/01 03:07:26;;;;;;;7.03;4.38;;;;;;;5.69;68.22;97819.09;4976541;28;104006;-80
2024/01/01 03:09:53;;;;;;;8.68;4.53;;;;;;;5.65;68.63;97818.56;4995751;28;104723;-78
2024/01/01 03:12:22;;;;;;;9.23;4.65;;;;;;;5.67;68.60;97813.16;4982148;28;102523;-77
2024/01/01 03:14:49;;;;;;;7.72;4.55;;;;;;;5.62;68.52;97823.31;4996144;28;102659;-78
2024/01/01 03:17:19;;;;;;;14.77;4.88;;;;;;;5.63;68.56;97824.97;4999445;28;104015;-78
2024/01/01 03:19:47;;;;;;;7.97;4.15;;;;;;;5.60;68.82;97843.69;4978672;28;104160;-77
2024/01/01 03:22:14;;;;;;;8.75;4.75;;;;;;;5.59;69.14;97852.53;4992386;28;102616;-80
2024/01/01 03:24:42;;;;;;;7.60;4.38;;;;;;;5.59;68.97;97857.78;4981025;28;102788;-78
2024/01/01 03:27:11;;;;;;;6.40;4.20;;;;;;;5.64;69.33;97860.78;4980909;28;104496;-77
2024/01/01 03:29:39;;;;;;;6.25;4.05;;;;;;;5.70;69.02;97856.69;4974954;28;102702;-77
2024/01/01 03:32:07;;;;;;;6.47;3.95;;;;;;;5.68;68.88;97861.28;4974397;28;102722;-77
2024/01/01 03:34:36;;;;;;;9.77;4.57;;;;;;;5.75;68.89;97864.91;4973779;28;102850;-80
2024/01/01 03:37:04;;;;;;;7.72;3.55;;;;;;;5.71;69.00;97848.66;4997640;28;104255;-78
2024/01/01 03:39:32;;;;;;;7.35;4.25;;;;;;;5.75;68.92;97857.88;4975458;28;103265;-77
2024/01/01 03:42:00;;;;;;;9.57;4.13;;;;;;;5.75;69.45;97851.78;4972162;28;102595;-77
2024/01/01 03:44:28;;;;;;;9.20;4.60;;;;;;;5.73;69.04;97859.84;4992846;28;104437;-77
2024/01/01 03:46:56;;;;;;;6.28;4.28;;;;;;;5.73;69.24;97865.09;4969842;28;104026;-79
2024/01/01 03:49:24;;;;;;;10.32;4.97;;;;;;;5.70;69.28;97860.16;4974037;28;104291;-78
2024/01/01 03:51:54;;;;;;;5.90;3.65;;;;;;;5.73;69.41;97865.09;4974524;28;102710;-80
2024/01/01 03:54:22;;;;;;;12.35;4.30;;;;;;;5.77;69.15;97852.47;4974595;28;104283;-79
2024/01/01 03:56:50;;;;;;;7.25;4.00;;;;;;;5.79;69.21;97853.94;4973894;28;103263;-79
2024/01/01 03:59:18;;;;;;;9.52;4.57;;;;;;;5.73;69.69;97859.84;4993992;28;103361;-79
2024/01/01 04:01:46;;;;;;;8.98;4.30;;;;;;;5.72;69.65;97855.56;4975938;28;102693;-79
2024/01/01 04:04:15;;;;;;;8.45;4.05;;;;;;;5.77;69.56;97845.38;4978621;28;103867;-80
2024/01/01 04:06:43;;;;;;;7.88;4.05;;;;;;;5.73;69.62;97848.50;4991545;28;103543;-78
2024/01/01 04:09:12;;;;;;;10.63;4.47;;;;;;;5.70;69.48;97854.91;4976366;28;103237;-78
2024/01/01 04:11:40;;;;;;;6.93;4.28;;;;;;;5.67;69.85;97855.19;4979150;28;102637;-78
2024/01/01 04:14:08;;;;;;;8.90;4.15;;;;;;;5.68;69.91;97856.84;4973116;28;102749;-77
2024/01/01 04:16:37;;;;;;;7.63;4.05;;;;;;;5.64;69.78;97855.53;4993016;28;103175;-76
2024/01/01 04:19:05;;;;;;;7.07;3.72;;;;;;;5.66;69.74;97864.09;4980004;28;104357;-78
2024/01/01 04:21:33;;;;;;;9.13;4.07;;;;;;;5.60;69.84;97860.25;4992705;28;102790;-77
2024/01/01 04:24:01;;;;;;;7.43;4.00;;;;;;;5.57;69.88;97865.03;4990017;28;104262;-77
2024/01/01 04:26:30;;;;;;;6.40;3.67;;;;;;;5.56;70.09;97869.44;4991374;28;104180;-78
2024/01/01 04:28:58;;;;;;;7.25;3.88;;;;;;;5.52;70.29;97868.09;4976727;28;103067;-77
2024/01/01 04:31:26;;;;;;;7.75;3.85;;;;;;;5.48;70.46;97861.53;4991544;28;102823;-77
2024/01/01 04:33:54;;;;;;;6.50;3.40;;;;;;;5.50;69.72;97858.75;4976210;28;103708;-77
2024/01/01 04:36:23;;;;;;;7.28;3.65;;;;;;;5.48;69.85;97859.72;4973904;28;103058;-77
2024/01/01 04:38:50;;;;;;;6.97;3.92;;;;;;;5.47;70.46;97847.56;4997357;28;103353;-78
2024/01/01 04:41:18;;;;;;;6.63;3.45;;;;;;;5.50;69.99;97853.47;4990359;28;102557;-77
2024/01/01 04:43:48;;;;;;;8.27;3.35;;;;;;;5.47;70.03;97850.19;4976093;28;102870;-78
2024/01/01 04:46:16;;;;;;;7.30;3.70;;;;;;;5.47;70.28;97844.94;4989650;28;104034;-79
2024/01/01 04:48:43;;;;;;;7.18;3.72;;;;;;;5.45;70.18;97840.81;4991773;28;103239;-79
2024/01/01 04:51:11;;;;;;;7.75;3.30;;;;;;;5.40;70.61;97836.03;4987630;28;102583;-78
2024/01/01 04:53:39;;;;;;;7.88;3.05;;;;;;;5.39;70.60;97834.38;4993607;28;104199;-79
2024/01/01 04:56:07;;;;;;;5.20;2.85;;;;;;;5.34;70.67;97849.78;4967368;28;104141;-77
2024/01/01 04:58:35;;;;;;;7.70;3.05;;;;;;;5.40;70.20;97843.91;4990647;28;104240;-78
2024/01/01 05:01:05;;;;;;;5.80;2.58;;;;;;;5.40;70.43;97854.44;4996031;28;102622;-78
2024/01/01 05:03:33;;;;;;;6.80;2.95;;;;;;;5.34;70.40;97849.78;4975049;28;104142;-77
2024/01/01 05:06:01;;;;;;;6.20;3.10;;;;;;;5.32;70.80;97844.69;4972742;28;102787;-78
2024/01/01 05:08:29;;;;;;;5.28;2.58;;;;;;;5.23;70.92;97847.44;4990650;28;103268;-78
2024/01/01 05:10:57;;;;;;;6.13;2.90;;;;;;;5.20;71.06;97855.59;4973312;28;102717;-80
2024/01/01 05:13:25;;;;;;;8.93;2.65;;;;;;;5.18;70.72;97861.03;4994584;28;103899;-79
2024/01/01 05:15:53;;;;;;;4.55;2.42;;;;;;;5.19;70.95;97861.84;4993247;28;103113;-81
2024/01/01 05:18:22;;;;;;;4.40;2.42;;;;;;;5.08;71.16;97866.38;4991852;28;103275;-78
2024/01/01 05:20:50;;;;;;;4.82;2.35;;;;;;;5.08;71.08;97861.13;4976568;28;102631;-78
2024/01/01 05:23:18;;;;;;;5.72;2.58;;;;;;;5.07;70.89;97875.22;4995390;28;103677;-80
2024/01/01 05:25:46;;;;;;;4.05;2.33;;;;;;;5.13;70.67;97868.53;4990259;28;103773;-79
2024/01/01 05:28:14;;;;;;;3.80;2.10;;;;;;;5.18;70.29;97881.22;4987456;28;103182;-78
2024/01/01 05:30:42;;;;;;;7.70;2.55;;;;;;;5.18;70.40;97876.78;4997883;28;102622;-78
2024/01/01 05:33:10;;;;;;;6.30;2.22;;;;;;;5.21;70.40;97883.50;4993252;28;102599;-78
2024/01/01 05:35:39;;;;;;;7.57;2.55;;;;;;;5.25;69.89;97890.94;4995193;28;103256;-79
2024/01/01 05:38:07;;;;;;;6.30;2.60;;;;;;;5.23;70.28;97889.44;4976679;28;103435;-77
2024/01/01 05:40:37;;;;;;;4.78;2.15;;;;;;;5.27;69.83;97885.53;4971148;28;103860;-77
2024/01/01 05:43:05;;;;;;;4.38;2.03;;;;;;;5.23;69.66;97889.44;4997407;28;104223;-77
2024/01/01 05:50:26;;;;;;;3.05;1.80;;;;;;;5.27;69.24;97896.03;4993971;28;103539;-78
2024/01/01 05:52:56;;;;;;;4.10;1.80;;;;;;;5.31;69.14;97892.13;4982072;28;102685;-77
2024/01/01 05:55:24;;;;;;;4.80;2.15;;;;;;;5.37;68.79;97909.88;5000662;28;104021;-78
2024/01/01 05:57:52;;;;;;;4.35;1.88;;;;;;;5.39;68.77;97910.53;4997117;28;104426;-78
2024/01/01 06:00:20;;;;;;;4.35;1.70;;;;;;;5.40;69.01;97912.19;4984651;28;104420;-78
2024/01/01 06:02:48;;;;;;;4.25;1.75;;;;;;;5.44;68.98;97910.91;4985523;28;102895;-79
2024/01/01 06:05:16;;;;;;;9.57;2.90;;;;;;;5.41;69.72;97918.25;4996022;28;102669;-78
2024/01/01 06:07:44;;;;;;;6.53;2.25;;;;;;;5.35;69.52;97919.72;4991682;28;103842;-77
2024/01/01 06:10:13;;;;;;;4.97;2.35;;;;;;;5.41;69.33;97919.09;4982518;28;104489;-78
2024/01/01 06:12:41;;;;;;;4.63;2.38;;;;;;;5.43;69.62;97917.13;4978631;28;103898;-77
2024/01/01 06:15:10;;;;;;;9.40;2.63;;;;;;;5.42;69.77;97925.16;4997829;28;102733;-78
2024/01/01 06:17:37;;;;;;;5.70;3.05;;;;;;;5.37;69.60;97922.19;5000342;28;103280;-77
2024/01/01 06:20:07;;;;;;;4.85;2.30;;;;;;;5.36;69.58;97916.13;4978617;28;104149;-77
2024/01/01 06:22:35;;;;;;;4.38;1.90;;;;;;;5.42;69.67;97920.75;4976620;28;102790;-79
2024/01/01 06:25:03;;;;;;;5.57;2.33;;;;;;;5.46;69.48;97921.25;4978584;28;103836;-79
2024/01/01 06:27:32;;;;;;;4.07;1.75;;;;;;;5.46;69.29;97932.59;5001412;28;104040;-76
2024/01/01 06:30:00;;;;;;;5.70;2.22;;;;;;;5.45;69.47;97924.84;4982484;28;103287;-77
2024/01/01 06:32:28;;;;;;;6.97;2.25;;;;;;;5.38;69.24;97923.84;4980805;28;102648;-77
2024/01/01 06:34:56;;;;;;;4.85;2.10;;;;;;;5.43;69.10;97927.63;4997875;28;104071;-77
2024/01/01 06:37:24;;;;;;;3.88;2.20;;;;;;;5.39;69.27;97926.31;4997243;28;103409;-77
2024/01/01 06:39:52;;;;;;;5.50;2.20;;;;;;;5.33;68.99;97926.91;4985659;28;103228;-77
2024/01/01 06:42:20;;;;;;;5.13;2.28;;;;;;;5.29;68.93;97936.06;5001322;28;102682;-80
2024/01/01 06:44:49;;;;;;;5.45;2.60;;;;;;;5.27;69.22;97938.03;4993791;28;104157;-79
2024/01/01 06:47:17;;;;;;;7.53;2.28;;;;;;;5.25;69.25;97932.09;4986670;28;104266;-77
2024/01/01 06:49:45;;;;;;;6.18;2.15;;;;;;;5.21;69.32;97941.28;4997724;28;103243;-78
2024/01/01 06:52:13;;;;;;;5.22;2.30;;;;;;;5.19;69.24;97945.84;5001304;28;102569;-81
2024/01/01 06:54:41;;;;;;;4.32;1.73;;;;;;;5.18;69.53;97944.22;4985324;28;103125;-79
2024/01/01 06:57:09;;;;;;;26.30;3.60;;;;;;;5.23;69.17;97944.59;4979278;28;103245;-79
2024/01/01 06:59:37;;;;;;;5.80;2.40;;;;;;;5.15;69.38;97946.16;5000815;28;103282;-79
2024/01/01 07:02:07;;;;;;;5.68;2.30;;;;;;;5.09;69.25;97951.19;4999366;28;102562;-78
2024/01/01 07:04:34;;;;;;;4.40;2.20;;;;;;;5.12;69.36;97949.09;5002015;28;103632;-79
2024/01/01 07:07:03;;;;;;;6.72;2.78;;;;;;;5.12;69.26;97951.72;4997000;28;104040;-79
2024/01/01 07:09:31;;;;;;;5.05;2.35;;;;;;;5.09;69.16;97957.25;4986964;28;103012;-78
2024/01/01 07:11:59;;;;;;;5.07;2.08;;;;;;;5.05;68.59;97955.91;5004230;28;102613;-79
2024/01/01 07:14:27;;;;;;;7.57;2.25;;;;;;;5.06;69.12;97962.81;4999885;28;102672;-81
2024/01/01 07:16:55;;;;;;;6.78;2.00;;;;;;;5.09;69.05;97959.88;5004627;28;103870;-80
2024/01/01 07:19:24;;;;;;;5.93;1.85;;;;;;;5.06;68.80;97962.00;5001322;28;103215;-80
2024/01/01 07:21:52;;;;;;;5.82;2.20;;;;;;;5.05;68.88;97966.41;5003746;28;102617;-80
2024/01/01 07:24:22;;;;;;;5.38;2.15;;;;;;;5.08;68.90;97975.78;4983821;28;103035;-81
2024/01/01 07:26:50;;;;;;;4.15;2.00;;;;;;;5.07;68.98;97980.22;5001701;28;103427;-82
2024/01/01 07:29:18;;;;;;;5.47;1.85;;;;;;;5.12;68.92;97995.50;5007204;28;102576;-82
2024/01/01 07:31:46;;;;;;;3.42;1.80;;;;;;;5.16;68.72;97991.59;5003260;28;102908;-80
2024/01/01 07:34:15;;;;;;;7.18;2.40;;;;;;;5.08;69.03;97989.75;4997875;28;103852;-78
2024/01/01 07:36:45;;;;;;;4.88;1.90;;;;;;;5.20;68.37;97986.88;5000131;28;104407;-78
2024/01/01 07:39:13;;;;;;;7.32;2.50;;;;;;;5.10;68.81;97982.53;5002048;28;103353;-78
2024/01/01 07:41:41;;;;;;;7.60;2.30;;;;;;;5.11;68.81;97993.88;4996659;28;102694;-79
2024/01/01 07:44:11;;;;;;;6.65;2.42;;;;;;;5.07;68.58;97982.84;5000214;28;104016;-81
2024/01/01 07:46:39;;;;;;;6.35;2.83;;;;;;;5.22;68.50;97993.63;4999420;28;104065;-82
2024/01/01 07:49:07;;;;;;;7.85;2.85;;;;;;;5.20;68.56;97990.34;4982634;28;104617;-78
2024/01/01 07:51:36;;;;;;;4.85;2.35;;;;;;;5.28;68.48;97992.22;5001638;28;102696;-79
2024/01/01 07:54:05;;;;;;;8.98;2.85;;;;;;;5.36;68.36;97984.38;4979387;28;104162;-79
2024/01/01 07:56:33;;;;;;;5.28;2.00;;;;;;;5.45;67.88;97993.97;4980814;28;103487;-80
2024/01/01 07:59:01;;;;;;;4.00;1.80;;;;;;;5.54;67.62;97996.66;5002653;28;103322;-80
2024/01/01 08:01:28;;;;;;;5.00;1.80;;;;;;;5.62;67.30;98004.59;5002334;28;102756;-79
2024/01/01 08:03:56;;;;;;;3.78;1.92;;;;;;;5.69;67.29;98005.63;5002671;28;103846;-82
2024/01/01 08:06:24;;;;;;;5.43;2.28;;;;;;;5.82;67.02;98003.41;5003004;28;104008;-79
2024/01/01 08:08:52;;;;;;;4.68;2.38;;;;;;;5.86;66.38;98014.44;4983979;28;103447;-79
2024/01/01 08:11:23;;;;;;;6.45;2.80;;;;;;;5.76;67.07;98017.16;4999962;28;102596;-80
2024/01/01 08:13:51;;;;;;;7.35;2.83;;;;;;;5.84;67.27;98029.53;4986155;28;104110;-80
2024/01/01 08:16:19;;;;;;;5.63;2.20;;;;;;;5.85;66.64;98019.88;5000326;28;103818;-79
2024/01/01 08:18:48;;;;;;;4.28;2.10;;;;;;;5.76;67.04;98038.19;5003328;28;103245;-79
2024/01/01 08:21:16;;;;;;;6.68;2.28;;;;;;;5.61;67.31;98034.47;4998108;28;102601;-83
2024/01/01 08:23:44;;;;;;;3.58;1.42;;;;;;;5.66;67.77;98037.47;4982977;28;103991;-79
2024/01/01 08:26:12;;;;;;;6.55;2.10;;;;;;;5.59;68.30;98020.66;5003698;28;104426;-76
2024/01/01 08:28:41;;;;;;;5.93;2.40;;;;;;;5.54;68.76;98022.91;5000224;28;103237;-76
2024/01/01 08:31:09;;;;;;;7.28;2.33;;;;;;;5.59;68.42;98031.16;4994069;28;102804;-81
2024/01/01 08:33:37;;;;;;;5.60;2.13;;;;;;;5.75;67.33;98031.31;5000569;28;104140;-85
2024/01/01 08:36:06;;;;;;;7.18;2.33;;;;;;;5.73;67.87;98028.00;4995428;28;103903;-77
2024/01/01 08:38:34;;;;;;;5.57;2.03;;;;;;;5.99;67.12;98021.94;4998038;28;103264;-81
2024/01/01 08:41:02;;;;;;;4.68;2.03;;;;;;;6.14;66.79;98030.91;4984602;28;102725;-83
2024/01/01 08:43:30;;;;;;;3.80;1.80;;;;;;;6.17;66.52;98032.41;5000787;28;103687;-78
2024/01/01 08:46:00;;;;;;;7.45;2.08;;;;;;;6.21;66.29;98032.91;4981729;28;103423;-76
2024/01/01 08:48:27;;;;;;;5.70;2.15;;;;;;;6.36;65.92;98033.97;4979111;28;104318;-80
2024/01/01 08:50:55;;;;;;;6.47;1.92;;;;;;;6.56;65.90;98036.34;4977167;28;102992;-80
2024/01/01 08:53:23;;;;;;;5.65;2.10;;;;;;;6.61;65.47;98032.25;4977796;28;104458;-77
2024/01/01 08:55:52;;;;;;;5.38;1.95;;;;;;;6.66;65.25;98034.41;4994225;28;104554;-76
2024/01/01 08:58:20;;;;;;;5.50;2.30;;;;;;;6.69;65.22;98038.53;4994284;28;103296;-79
2024/01/01 09:00:48;;;;;;;5.93;1.92;;;;;;;6.67;64.93;98046.59;4976682;28;102653;-80
2024/01/01 09:03:17;;;;;;;5.53;2.00;;;;;;;6.99;64.18;98042.41;4999004;28;102755;-79
2024/01/01 09:05:45;;;;;;;7.25;2.17;;;;;;;7.03;64.46;98041.09;4998748;28;104411;-79
2024/01/01 09:08:13;;;;;;;6.97;2.40;;;;;;;6.94;63.96;98055.22;4978062;28;104175;-77
2024/01/01 09:10:42;;;;;;;5.43;1.90;;;;;;;6.86;64.64;98055.22;4974095;28;102975;-81
2024/01/01 09:13:11;;;;;;;5.50;1.90;;;;;;;6.78;64.68;98050.75;4978177;28;104056;-79
2024/01/01 09:15:39;;;;;;;4.15;1.70;;;;;;;6.84;64.84;98057.16;4979046;28;103453;-83
2024/01/01 09:18:07;;;;;;;4.30;1.70;;;;;;;6.84;64.85;98054.53;4995715;28;104355;-77
2024/01/01 09:20:38;;;;;;;5.68;1.98;;;;;;;6.77;64.74;98063.09;4980016;28;103257;-77
2024/01/01 09:23:09;;;;;;;5.28;1.85;;;;;;;6.91;64.71;98069.53;5001416;28;104160;-78
2024/01/01 09:25:39;;;;;;;4.10;2.05;;;;;;;6.98;64.02;98061.81;4994808;28;103223;-79
2024/01/01 09:28:07;;;;;;;4.45;2.10;;;;;;;7.03;64.40;98066.59;4993645;28;103195;-77
2024/01/01 09:30:36;;;;;;;8.10;2.10;;;;;;;7.06;63.26;98072.38;4997380;28;103054;-78
2024/01/01 09:33:04;;;;;;;7.57;2.00;;;;;;;7.13;64.21;98067.28;4999170;28;104048;-77
2024/01/01 09:35:32;;;;;;;4.05;1.80;;;;;;;7.26;63.36;98066.81;4977548;28;104315;-78
2024/01/01 09:38:03;;;;;;;5.60;2.17;;;;;;;7.26;63.18;98072.09;4981398;28;103942;-79
2024/01/01 09:40:31;;;;;;;3.50;1.65;;;;;;;7.23;63.17;98075.03;4998458;28;102972;-79
2024/01/01 09:42:59;;;;;;;6.50;2.20;;;;;;;7.11;63.25;98075.34;4996324;28;103751;-78
2024/01/01 09:45:28;;;;;;;5.05;1.83;;;;;;;7.12;63.90;98071.72;4996635;28;104158;-78
2024/01/01 09:47:56;;;;;;;3.88;1.95;;;;;;;7.18;62.96;98079.97;4999164;28;103044;-79
2024/01/01 09:50:24;;;;;;;7.32;2.08;;;;;;;7.22;62.74;98070.75;4980620;28;102688;-78
2024/01/01 09:52:58;;;;;;;7.93;2.33;;;;;;;7.27;62.93;98074.56;4994881;28;103923;-78
2024/01/01 09:55:27;;;;;;;6.97;2.55;;;;;;;7.33;62.63;98075.72;4991235;28;104231;-78
2024/01/01 09:57:55;;;;;;;5.68;2.17;;;;;;;7.44;62.78;98069.28;5000014;28;103019;-78
2024/01/01 10:00:23;;;;;;;5.32;1.92;;;;;;;7.59;62.17;98070.28;4997395;28;102749;-78
2024/01/01 10:02:51;;;;;;;4.53;1.60;;;;;;;7.53;61.76;98062.22;4998111;28;104106;-78
2024/01/01 10:05:19;;;;;;;4.20;1.70;;;;;;;7.72;61.24;98071.63;4998524;28;103858;-78
2024/01/01 10:07:48;;;;;;;4.38;1.90;;;;;;;7.83;60.78;98067.81;4997562;28;103203;-78
2024/01/01 10:10:28;;;;;;;10.20;2.80;;;;;;;8.03;59.99;98058.59;4979164;28;102682;-78
2024/01/01 10:13:07;;;;;;;7.50;2.25;;;;;;;8.05;59.69;98061.03;4997840;28;103994;-78
2024/01/01 10:15:36;;;;;;;3.55;1.83;;;;;;;8.13;59.69;98061.88;4996206;28;103309;-78
2024/01/01 10:18:09;;;;;;;6.57;1.90;;;;;;;8.10;59.22;98064.81;4977657;28;103810;-77
2024/01/01 10:20:38;;;;;;;8.25;1.88;;;;;;;8.29;59.22;98046.97;5002843;28;102744;-77
2024/01/01 10:23:27;;;;;;;5.00;1.92;;;;;;;8.39;57.91;98055.50;4980982;28;102927;-78
2024/01/01 10:26:10;;;;;;;10.38;3.15;;;;;;;8.24;57.39;98058.03;4998968;28;103978;-78
2024/01/01 10:28:40;;;;;;;5.97;1.90;;;;;;;8.21;57.34;98070.72;5002552;28;103253;-78
2024/01/01 10:31:12;;;;;;;4.20;1.80;;;;;;;8.55;57.73;98069.69;5002681;28;102571;-78
2024/01/01 10:33:41;;;;;;;6.22;2.42;;;;;;;8.54;57.17;98068.03;5005347;28;102701;-78
2024/01/01 10:36:11;;;;;;;5.40;1.90;;;;;;;8.55;56.53;98061.75;4994654;28;104565;-76
2024/01/01 10:38:40;;;;;;;12.95;2.42;;;;;;;8.49;56.51;98065.06;4978173;28;104236;-77
2024/01/01 10:41:11;;;;;;;4.65;2.00;;;;;;;8.64;56.05;98068.66;5000280;28;102603;-77
2024/01/01 10:43:40;;;;;;;4.78;1.80;;;;;;;8.79;56.32;98072.22;5001644;28;102770;-77
2024/01/01 10:46:13;;;;;;;5.22;1.80;;;;;;;8.71;56.18;98069.63;5001354;28;104187;-78
2024/01/01 10:48:43;;;;;;;5.93;2.47;;;;;;;8.56;56.25;98079.25;5001273;28;103309;-77
2024/01/01 10:51:31;;;;;;;6.68;2.10;;;;;;;8.34;56.04;98070.22;4994845;28;102509;-75
2024/01/01 10:54:29;;;;;;;6.35;2.65;;;;;;;8.57;56.37;98084.34;5001522;28;104432;-76
2024/01/01 10:57:13;;;;;;;7.43;1.70;;;;;;;8.49;56.79;98080.91;4998455;28;104208;-76
2024/01/01 10:59:47;;;;;;;8.27;2.13;;;;;;;8.21;55.86;98076.81;4992798;28;103294;-77
2024/01/01 11:02:15;;;;;;;4.30;2.17;;;;;;;8.27;56.73;98080.63;4993850;28;103128;-76
2024/01/01 11:04:47;;;;;;;9.63;2.20;;;;;;;8.33;56.59;98064.09;4995993;28;104013;-77
2024/01/01 11:07:15;;;;;;;6.18;2.22;;;;;;;8.26;55.92;98069.22;4985748;28;103245;-77
2024/01/01 11:09:49;;;;;;;8.10;2.20;;;;;;;8.21;56.09;98058.34;4984321;28;103929;-77
2024/01/01 11:12:32;;;;;;;;;;;;;;;8.22;55.84;98062.66;4994902;28;102827;-77
2024/01/01 11:15:40;;;;;;;6.28;2.38;;;;;;;8.14;55.17;98066.13;4991044;28;103827;-77
2024/01/01 11:18:16;;;;;;;10.77;2.33;;;;;;;8.20;55.36;98079.63;4998134;28;103272;-77
2024/01/01 11:20:49;;;;;;;7.63;2.25;;;;;;;8.00;55.10;98077.34;4993825;28;102661;-78
2024/01/01 11:23:40;;;;;;;6.95;2.00;;;;;;;8.16;55.61;98083.59;4977735;28;102634;-75
2024/01/01 11:26:30;;;;;;;7.25;2.58;;;;;;;8.06;55.51;98079.34;4981005;28;104346;-77
2024/01/01 11:29:00;;;;;;;9.85;3.13;;;;;;;8.10;54.81;98075.38;4999108;28;103307;-78
2024/01/01 11:31:31;;;;;;;5.53;2.47;;;;;;;8.27;55.21;98072.72;4996840;28;103340;-77
2024/01/01 11:34:03;;;;;;;8.55;3.30;;;;;;;8.33;55.90;98069.38;4994194;28;102693;-77
2024/01/01 11:36:47;;;;;;;3.70;2.00;;;;;;;8.51;55.28;98065.75;4978746;28;104070;-77
2024/01/01 11:39:16;;;;;;;6.80;2.20;;;;;;;8.62;54.55;98073.28;4977025;28;104405;-77
2024/01/01 11:41:44;;;;;;;5.65;1.98;;;;;;;8.70;55.15;98075.91;4975721;28;104198;-79
2024/01/01 11:44:14;;;;;;;5.88;2.08;;;;;;;8.66;55.15;98064.03;4999472;28;102539;-77
2024/01/01 11:46:45;;;;;;;7.60;3.17;;;;;;;8.40;54.36;98074.81;4978139;28;102679;-78